createdAt,value
2019-04-04T00:00:12.207Z,8.87
2019-04-04T00:02:40.604Z,9.17
2019-04-04T00:05:09.247Z,8.50
2019-04-04T00:07:37.651Z,9.00
2019-04-04T00:10:07.504Z,8.37
2019-04-04T00:12:36.983Z,8.77
2019-04-04T00:15:06.455Z,8.33
2019-04-04T00:17:34.858Z,8.43
2019-04-04T00:20:04.814Z,8.47
2019-04-04T00:22:35.157Z,8.47
2019-04-04T00:25:03.662Z,8.60
2019-04-04T00:27:32.064Z,8.30
2019-04-04T00:30:00.541Z,8.43
2019-04-04T00:32:28.947Z,8.00
2019-04-04T00:34:57.843Z,9.10
2019-04-04T00:37:27.471Z,9.07
2019-04-04T00:39:55.953Z,8.70
2019-04-04T00:42:24.356Z,8.50
2019-04-04T00:44:53.898Z,9.10
2019-04-04T00:47:22.893Z,8.90
2019-04-04T00:49:51.331Z,9.00
2019-04-04T00:52:19.727Z,8.77
2019-04-04T00:54:48.126Z,8.13
2019-04-04T00:57:17.271Z,7.57
2019-04-04T00:59:46.665Z,8.80
2019-04-04T01:02:15.085Z,8.37
2019-04-04T01:04:43.479Z,7.63
2019-04-04T01:07:11.883Z,8.23
2019-04-04T01:09:40.278Z,7.90
2019-04-04T01:12:08.691Z,8.00
2019-04-04T01:14:37.094Z,8.17
2019-04-04T01:17:05.636Z,7.43
2019-04-04T01:19:34.040Z,7.13
2019-04-04T01:22:02.432Z,7.60
2019-04-04T01:24:30.841Z,7.37
2019-04-04T01:26:59.252Z,7.40
2019-04-04T01:29:27.658Z,7.40
2019-04-04T01:31:56.060Z,7.00
2019-04-04T01:34:24.459Z,6.80
2019-04-04T01:36:56.165Z,7.30
2019-04-04T01:39:23.007Z,7.50
2019-04-04T01:41:51.417Z,7.63
2019-04-04T01:44:19.835Z,7.67
2019-04-04T01:46:48.222Z,7.87
2019-04-04T01:49:16.636Z,7.87
2019-04-04T01:51:45.046Z,7.80
2019-04-04T01:54:13.451Z,7.67
2019-04-04T01:56:41.862Z,7.83
2019-04-04T01:59:12.286Z,8.50
2019-04-04T02:01:40.460Z,7.83
2019-04-04T02:04:08.861Z,8.40
2019-04-04T02:06:37.333Z,8.63
2019-04-04T02:09:06.980Z,8.30
2019-04-04T02:11:37.311Z,9.00
2019-04-04T02:14:05.667Z,8.40
2019-04-04T02:16:34.151Z,9.07
2019-04-04T02:19:02.547Z,8.70
2019-04-04T02:21:30.962Z,8.83
2019-04-04T02:24:01.296Z,7.73
2019-04-04T02:26:29.511Z,8.50
2019-04-04T02:28:57.912Z,7.63
2019-04-04T02:31:27.961Z,7.70
2019-04-04T02:33:56.369Z,8.40
2019-04-04T02:36:24.772Z,8.33
2019-04-04T02:39:11.084Z,9.20
2019-04-04T02:41:39.621Z,8.20
2019-04-04T02:44:08.207Z,8.17
2019-04-04T02:46:36.615Z,8.83
2019-04-04T02:49:05.213Z,10.07
2019-04-04T02:51:33.684Z,9.33
2019-04-04T02:54:02.093Z,10.00
2019-04-04T02:56:35.013Z,10.50
2019-04-04T02:59:00.860Z,10.63
2019-04-04T03:01:31.602Z,10.10
2019-04-04T03:03:59.494Z,10.87
2019-04-04T03:06:27.913Z,11.37
2019-04-04T03:08:56.332Z,12.03
2019-04-04T03:11:24.823Z,13.17
2019-04-04T03:13:53.240Z,12.03
2019-04-04T03:16:22.551Z,11.33
2019-04-04T03:18:51.099Z,11.80
2019-04-04T03:21:22.208Z,13.43
2019-04-04T03:23:49.716Z,14.87
2019-04-04T03:26:20.185Z,14.13
2019-04-04T03:28:48.326Z,13.73
2019-04-04T03:31:16.812Z,13.00
2019-04-04T03:33:45.213Z,12.43
2019-04-04T03:36:13.627Z,12.57
2019-04-04T03:38:45.922Z,11.50
2019-04-04T03:41:12.173Z,12.40
2019-04-04T03:43:40.581Z,12.67
2019-04-04T03:46:09.000Z,11.20
2019-04-04T03:48:37.400Z,11.33
2019-04-04T03:51:05.825Z,11.30
2019-04-04T03:53:34.409Z,11.03
2019-04-04T03:56:02.821Z,10.93
2019-04-04T03:58:31.226Z,11.27
2019-04-04T04:00:59.645Z,10.30
2019-04-04T04:03:28.043Z,10.77
2019-04-04T04:05:56.515Z,11.00
2019-04-04T04:08:24.934Z,12.30
2019-04-04T04:10:53.366Z,12.23
2019-04-04T04:13:21.849Z,12.90
2019-04-04T04:15:50.260Z,13.17
2019-04-04T04:18:21.244Z,13.43
2019-04-04T04:20:48.804Z,13.57
2019-04-04T04:23:17.218Z,15.33
2019-04-04T04:25:45.896Z,12.37
2019-04-04T04:28:36.013Z,11.93
2019-04-04T04:31:04.446Z,12.00
2019-04-04T04:33:32.858Z,13.40
2019-04-04T04:36:01.269Z,11.20
2019-04-04T04:38:29.690Z,12.73
2019-04-04T04:40:59.727Z,13.00
2019-04-04T04:43:32.414Z,12.83
2019-04-04T04:45:58.564Z,12.13
2019-04-04T04:48:30.778Z,12.70
2019-04-04T04:50:57.120Z,12.17
2019-04-04T04:53:25.543Z,13.27
2019-04-04T04:55:53.967Z,13.20
2019-04-04T04:58:22.386Z,13.30
2019-04-04T05:00:50.802Z,13.63
2019-04-04T05:03:19.224Z,15.37
2019-04-04T05:05:47.628Z,14.67
2019-04-04T05:08:16.052Z,15.07
2019-04-04T05:10:45.923Z,16.17
2019-04-04T05:13:14.763Z,17.80
2019-04-04T05:15:43.184Z,15.63
2019-04-04T05:18:11.979Z,14.80
2019-04-04T05:20:40.645Z,13.77
2019-04-04T05:23:11.169Z,14.27
2019-04-04T05:25:51.806Z,15.13
2019-04-04T05:28:10.731Z,14.73
2019-04-04T05:30:39.521Z,17.50
2019-04-04T05:33:07.963Z,16.63
2019-04-04T05:35:37.640Z,17.17
2019-04-04T05:38:07.688Z,19.47
2019-04-04T05:40:36.366Z,15.77
2019-04-04T05:43:04.903Z,19.43
2019-04-04T05:45:33.476Z,16.43
2019-04-04T05:48:01.947Z,17.70
2019-04-04T05:50:30.416Z,16.53
2019-04-04T05:52:58.846Z,15.13
2019-04-04T05:55:27.269Z,15.97
2019-04-04T05:57:55.787Z,14.37
2019-04-04T06:00:26.922Z,20.37
2019-04-04T06:02:54.428Z,14.87
2019-04-04T06:05:22.901Z,13.87
2019-04-04T06:07:51.316Z,13.00
2019-04-04T06:10:19.727Z,13.73
2019-04-04T06:12:48.150Z,13.63
2019-04-04T06:15:16.556Z,15.10
2019-04-04T06:17:44.987Z,13.10
2019-04-04T06:20:14.983Z,13.37
2019-04-04T06:22:44.031Z,12.80
2019-04-04T06:25:12.510Z,12.33
2019-04-04T06:27:40.966Z,11.77
2019-04-04T06:30:09.660Z,11.50
2019-04-04T06:32:39.003Z,12.83
2019-04-04T06:35:07.771Z,13.57
2019-04-04T06:37:38.524Z,11.63
2019-04-04T06:40:07.163Z,12.27
2019-04-04T06:42:36.961Z,11.23
2019-04-04T06:45:06.506Z,12.80
2019-04-04T06:47:34.975Z,13.27
2019-04-04T06:50:07.164Z,12.30
2019-04-04T06:52:33.699Z,12.87
2019-04-04T06:55:02.126Z,12.70
2019-04-04T06:57:30.540Z,13.80
2019-04-04T06:59:58.948Z,13.00
2019-04-04T07:02:27.355Z,12.73
2019-04-04T07:04:55.845Z,13.43
2019-04-04T07:07:24.331Z,12.37
2019-04-04T07:09:52.748Z,13.00
2019-04-04T07:12:27.881Z,13.20
2019-04-04T07:14:51.345Z,12.77
2019-04-04T07:17:19.775Z,13.40
2019-04-04T07:19:48.194Z,12.43
2019-04-04T07:22:16.615Z,13.00
2019-04-04T07:24:45.100Z,12.67
2019-04-04T07:27:14.205Z,13.63
2019-04-04T07:29:43.644Z,12.70
2019-04-04T07:32:12.088Z,13.40
2019-04-04T07:34:40.557Z,12.33
2019-04-04T07:37:08.971Z,13.40
2019-04-04T07:39:37.388Z,13.40
2019-04-04T07:42:05.796Z,13.13
2019-04-04T07:44:34.215Z,12.80
2019-04-04T07:47:02.627Z,12.67
2019-04-04T07:49:31.036Z,12.10
2019-04-04T07:52:00.125Z,12.47
2019-04-04T07:54:31.847Z,12.53
2019-04-04T07:56:59.726Z,11.53
2019-04-04T07:59:30.950Z,11.93
2019-04-04T08:01:58.263Z,11.77
2019-04-04T08:04:26.684Z,11.63
2019-04-04T08:06:55.087Z,12.57
2019-04-04T08:09:26.049Z,11.00
2019-04-04T08:11:53.637Z,11.43
2019-04-04T08:14:22.131Z,12.80
2019-04-04T08:16:50.535Z,10.60
2019-04-04T08:19:19.027Z,11.00
2019-04-04T08:21:47.439Z,10.80
2019-04-04T08:24:15.843Z,10.37
2019-04-04T08:26:44.362Z,9.93
2019-04-04T08:29:12.799Z,10.17
2019-04-04T08:31:41.218Z,10.27
2019-04-04T08:34:09.628Z,11.27
2019-04-04T08:36:38.128Z,10.40
2019-04-04T08:39:08.809Z,9.23
2019-04-04T08:41:37.232Z,9.70
2019-04-04T08:44:05.720Z,9.60
2019-04-04T08:46:34.135Z,10.57
2019-04-04T08:49:03.177Z,10.27
2019-04-04T08:51:31.956Z,8.70
2019-04-04T08:54:00.372Z,9.93
2019-04-04T08:56:28.775Z,10.33
2019-04-04T08:58:57.526Z,9.20
2019-04-04T09:01:26.288Z,9.73
2019-04-04T09:03:54.923Z,8.93
2019-04-04T09:06:23.578Z,9.00
2019-04-04T09:08:52.330Z,8.30
2019-04-04T09:11:21.668Z,9.13
2019-04-04T09:13:50.272Z,8.77
2019-04-04T09:16:19.503Z,8.47
2019-04-04T09:18:49.428Z,8.83
2019-04-04T09:21:18.265Z,10.70
2019-04-04T09:23:47.272Z,9.83
2019-04-04T09:26:16.031Z,9.73
2019-04-04T09:28:45.032Z,9.77
2019-04-04T09:31:14.364Z,10.77
2019-04-04T09:33:43.214Z,12.33
2019-04-04T09:36:13.093Z,14.03
2019-04-04T09:38:41.805Z,12.73
2019-04-04T09:41:10.868Z,13.27
2019-04-04T09:43:39.476Z,14.47
2019-04-04T09:46:08.287Z,13.40
2019-04-04T09:48:37.072Z,14.07
2019-04-04T09:51:05.667Z,14.23
2019-04-04T09:53:35.115Z,14.70
2019-04-04T09:56:03.879Z,15.60
2019-04-04T09:58:32.342Z,15.07
2019-04-04T10:01:00.827Z,16.50
2019-04-04T10:03:29.447Z,16.70
2019-04-04T10:05:57.940Z,15.90
2019-04-04T10:08:26.426Z,15.33
2019-04-04T10:10:54.845Z,14.70
2019-04-04T10:13:23.259Z,15.37
2019-04-04T10:15:52.544Z,17.87
2019-04-04T10:18:20.960Z,16.33
2019-04-04T10:20:49.512Z,16.87
2019-04-04T10:23:17.904Z,16.37
2019-04-04T10:25:46.323Z,16.60
2019-04-04T10:28:14.799Z,18.50
2019-04-04T10:30:43.191Z,18.57
2019-04-04T10:33:11.618Z,17.53
2019-04-04T10:35:40.025Z,18.00
2019-04-04T10:38:08.440Z,16.80
2019-04-04T10:40:36.924Z,18.07
2019-04-04T10:43:05.579Z,18.37
2019-04-04T10:45:34.100Z,17.20
2019-04-04T10:48:02.519Z,17.67
2019-04-04T10:50:30.943Z,18.50
2019-04-04T10:52:59.361Z,17.87
2019-04-04T10:55:27.835Z,18.80
2019-04-04T10:57:56.259Z,18.60
2019-04-04T11:00:24.768Z,18.93
2019-04-04T11:02:53.231Z,19.70
2019-04-04T11:05:21.670Z,20.70
2019-04-04T11:07:50.081Z,19.57
2019-04-04T11:10:19.291Z,22.50
2019-04-04T11:12:47.791Z,22.87
2019-04-04T11:15:16.198Z,21.07
2019-04-04T11:17:44.617Z,22.47
2019-04-04T11:20:13.268Z,20.77
2019-04-04T11:22:41.683Z,23.50
2019-04-04T11:25:10.235Z,20.77
2019-04-04T11:27:38.644Z,21.17
2019-04-04T11:30:08.703Z,24.17
2019-04-04T11:32:37.120Z,22.00
2019-04-04T11:35:06.803Z,21.90
2019-04-04T11:37:35.215Z,23.97
2019-04-04T11:40:04.672Z,21.37
2019-04-04T11:42:33.083Z,23.30
2019-04-04T11:45:01.514Z,22.10
2019-04-04T11:47:29.917Z,20.90
2019-04-04T11:49:58.335Z,23.40
2019-04-04T11:52:26.744Z,21.17
2019-04-04T11:54:56.841Z,21.90
2019-04-04T11:57:25.263Z,21.90
2019-04-04T11:59:53.666Z,23.30
2019-04-04T12:02:22.308Z,21.37
2019-04-04T12:04:50.757Z,21.17
2019-04-04T12:07:19.183Z,23.50
2019-04-04T12:09:47.598Z,21.23
2019-04-04T12:12:16.037Z,23.87
2019-04-04T12:14:44.446Z,21.97
2019-04-04T12:17:12.879Z,22.33
2019-04-04T12:19:41.277Z,22.93
2019-04-04T12:22:11.784Z,20.83
2019-04-04T12:24:39.831Z,20.57
2019-04-04T12:27:08.243Z,22.10
2019-04-04T12:29:36.660Z,21.37
2019-04-04T12:32:05.094Z,21.77
2019-04-04T12:34:33.509Z,22.33
2019-04-04T12:37:01.927Z,22.43
2019-04-04T12:39:30.336Z,20.87
2019-04-04T12:41:58.830Z,20.23
2019-04-04T12:44:27.235Z,19.50
2019-04-04T12:46:55.643Z,20.43
2019-04-04T12:49:24.067Z,21.57
2019-04-04T12:51:52.471Z,21.70
2019-04-04T12:54:20.900Z,20.83
2019-04-04T12:56:49.315Z,19.60
2019-04-04T12:59:17.731Z,20.93
2019-04-04T13:01:46.143Z,19.23
2019-04-04T13:04:14.559Z,25.57
2019-04-04T13:06:43.052Z,20.33
2019-04-04T13:09:11.470Z,22.73
2019-04-04T13:11:39.889Z,22.70
2019-04-04T13:14:08.303Z,20.57
2019-04-04T13:16:36.721Z,19.23
2019-04-04T13:19:05.207Z,20.30
2019-04-04T13:21:33.616Z,19.00
2019-04-04T13:24:02.040Z,18.50
2019-04-04T13:26:30.455Z,19.83
2019-04-04T13:28:58.874Z,17.77
2019-04-04T13:31:27.291Z,18.27
2019-04-04T13:33:55.738Z,21.47
2019-04-04T13:36:24.207Z,25.90
2019-04-04T13:38:55.002Z,18.53
2019-04-04T13:41:22.776Z,17.83
2019-04-04T13:43:51.395Z,18.40
2019-04-04T13:46:24.531Z,23.13
2019-04-04T13:48:51.471Z,18.37
2019-04-04T13:51:21.080Z,18.50
2019-04-04T13:53:50.099Z,18.33
2019-04-04T13:56:18.573Z,20.10
2019-04-04T13:58:47.625Z,20.40
2019-04-04T14:01:16.180Z,22.47
2019-04-04T14:03:44.667Z,17.73
2019-04-04T14:06:13.088Z,28.57
2019-04-04T14:08:41.502Z,20.73
2019-04-04T14:11:09.986Z,23.77
2019-04-04T14:13:38.403Z,17.87
2019-04-04T14:16:06.891Z,17.53
2019-04-04T14:18:39.897Z,17.67
2019-04-04T14:21:05.607Z,18.00
2019-04-04T14:23:34.071Z,24.37
2019-04-04T14:26:02.498Z,20.97
2019-04-04T14:28:32.843Z,23.37
2019-04-04T14:31:01.329Z,33.73
2019-04-04T14:33:29.752Z,20.53
2019-04-04T14:35:58.161Z,17.90
2019-04-04T14:38:26.575Z,16.47
2019-04-04T14:40:54.975Z,16.83
2019-04-04T14:43:23.391Z,15.93
2019-04-04T14:45:51.800Z,15.03
2019-04-04T14:48:20.228Z,14.17
2019-04-04T14:50:48.631Z,13.30
2019-04-04T14:53:17.255Z,13.93
2019-04-04T14:55:45.679Z,14.43
2019-04-04T14:58:14.088Z,14.40
2019-04-04T15:00:42.500Z,14.83
2019-04-04T15:03:10.903Z,12.97
2019-04-04T15:05:39.335Z,17.33
2019-04-04T15:08:07.752Z,13.17
2019-04-04T15:10:38.830Z,12.47
2019-04-04T15:13:06.292Z,11.87
2019-04-04T15:15:34.701Z,12.80
2019-04-04T15:18:03.103Z,13.03
2019-04-04T15:20:31.524Z,10.07
2019-04-04T15:22:59.925Z,12.77
2019-04-04T15:25:28.410Z,11.50
2019-04-04T15:27:56.823Z,9.97
2019-04-04T15:30:25.228Z,13.23
2019-04-04T15:32:53.635Z,11.00
2019-04-04T15:35:22.040Z,9.03
2019-04-04T15:37:50.601Z,8.30
2019-04-04T15:40:19.070Z,7.83
2019-04-04T15:42:47.483Z,10.07
2019-04-04T15:45:15.966Z,9.73
2019-04-04T15:47:44.377Z,8.70
2019-04-04T15:50:12.885Z,11.03
2019-04-04T15:52:41.296Z,9.20
2019-04-04T15:55:09.775Z,7.83
2019-04-04T15:57:38.184Z,8.53
2019-04-04T16:00:08.452Z,8.30
2019-04-04T16:02:36.855Z,10.60
2019-04-04T16:05:07.298Z,7.77
2019-04-04T16:07:35.708Z,8.23
2019-04-04T16:10:06.048Z,15.43
2019-04-04T16:12:34.455Z,6.37
2019-04-04T16:15:02.923Z,7.30
2019-04-04T16:17:31.331Z,8.07
2019-04-04T16:19:59.743Z,6.67
2019-04-04T16:22:28.159Z,10.50
2019-04-04T16:24:56.572Z,7.63
2019-04-04T16:27:24.973Z,7.23
2019-04-04T16:29:53.387Z,8.23
2019-04-04T16:32:21.795Z,6.97
2019-04-04T16:34:52.420Z,7.30
2019-04-04T16:37:20.316Z,6.43
2019-04-04T16:39:48.716Z,7.20
2019-04-04T16:42:17.192Z,6.30
2019-04-04T16:44:46.082Z,6.57
2019-04-04T16:47:14.524Z,6.87
2019-04-04T16:49:42.928Z,8.00
2019-04-04T16:52:11.329Z,6.30
2019-04-04T16:54:39.745Z,10.13
2019-04-04T16:57:08.140Z,5.73
2019-04-04T16:59:36.626Z,5.00
2019-04-04T17:02:05.116Z,10.73
2019-04-04T17:04:33.520Z,4.20
2019-04-04T17:07:01.942Z,4.27
2019-04-04T17:09:30.331Z,4.73
2019-04-04T17:11:58.749Z,4.27
2019-04-04T17:14:27.151Z,4.60
2019-04-04T17:16:55.645Z,5.90
2019-04-04T17:19:41.891Z,4.30
2019-04-04T17:22:10.337Z,5.73
2019-04-04T17:24:38.777Z,4.30
2019-04-04T17:27:07.331Z,3.97
2019-04-04T17:29:37.447Z,4.37
2019-04-04T17:32:06.385Z,4.63
2019-04-04T17:34:35.272Z,5.90
2019-04-04T17:37:03.799Z,3.53
2019-04-04T17:39:32.540Z,3.40
2019-04-04T17:42:00.974Z,4.83
2019-04-04T17:44:29.574Z,4.07
2019-04-04T17:46:58.032Z,6.00
2019-04-04T17:49:26.509Z,4.33
2019-04-04T17:51:54.919Z,3.87
2019-04-04T17:54:23.536Z,4.30
2019-04-04T17:56:52.513Z,3.87
2019-04-04T17:59:21.083Z,3.60
2019-04-04T18:01:49.495Z,3.70
2019-04-04T18:04:17.895Z,4.13
2019-04-04T18:06:46.303Z,3.40
2019-04-04T18:09:31.643Z,4.60
2019-04-04T18:11:56.069Z,4.13
2019-04-04T18:14:24.475Z,4.43
2019-04-04T18:16:52.871Z,5.60
2019-04-04T18:19:22.262Z,5.70
2019-04-04T18:21:50.659Z,5.40
2019-04-04T18:24:19.068Z,6.03
2019-04-04T18:26:47.464Z,6.77
2019-04-04T18:29:15.892Z,6.63
2019-04-04T18:31:44.348Z,7.80
2019-04-04T18:34:13.334Z,8.60
2019-04-04T18:36:41.899Z,9.90
2019-04-04T18:39:10.849Z,8.00
2019-04-04T18:41:39.251Z,8.40
2019-04-04T18:44:07.652Z,8.03
2019-04-04T18:46:36.076Z,7.50
2019-04-04T18:49:04.739Z,7.50
2019-04-04T18:51:33.183Z,7.07
2019-04-04T18:54:01.634Z,6.73
2019-04-04T18:56:30.015Z,7.23
2019-04-04T18:58:58.419Z,7.13
2019-04-04T19:01:27.039Z,6.77
2019-04-04T19:03:55.583Z,6.37
2019-04-04T19:06:24.049Z,6.90
2019-04-04T19:08:52.464Z,6.57
2019-04-04T19:11:20.861Z,6.40
2019-04-04T19:13:49.375Z,6.90
2019-04-04T19:16:17.788Z,6.60
2019-04-04T19:18:46.202Z,6.30
2019-04-04T19:21:15.890Z,6.60
2019-04-04T19:23:49.410Z,6.80
2019-04-04T19:26:14.458Z,6.53
2019-04-04T19:28:42.867Z,6.33
2019-04-04T19:31:11.508Z,7.00
2019-04-04T19:33:41.452Z,6.53
2019-04-04T19:36:09.884Z,6.93
2019-04-04T19:38:41.667Z,6.23
2019-04-04T19:41:10.135Z,6.63
2019-04-04T19:43:38.612Z,6.33
2019-04-04T19:46:07.071Z,7.10
2019-04-04T19:48:35.503Z,6.77
2019-04-04T19:51:04.667Z,6.50
2019-04-04T19:53:33.221Z,7.00
2019-04-04T19:56:01.667Z,6.70
2019-04-04T19:58:30.124Z,6.60
2019-04-04T20:00:58.595Z,7.17
2019-04-04T20:03:27.010Z,8.10
2019-04-04T20:05:55.458Z,7.30
2019-04-04T20:08:23.919Z,7.00
2019-04-04T20:10:52.390Z,7.43
2019-04-04T20:13:30.269Z,7.17
2019-04-04T20:15:50.920Z,6.90
2019-04-04T20:18:19.330Z,6.80
2019-04-04T20:20:47.729Z,7.03
2019-04-04T20:23:16.135Z,6.87
2019-04-04T20:25:44.527Z,7.80
2019-04-04T20:28:12.935Z,8.23
2019-04-04T20:30:41.336Z,7.37
2019-04-04T20:33:09.743Z,7.30
2019-04-04T20:35:38.142Z,8.17
2019-04-04T20:38:06.555Z,8.23
2019-04-04T20:40:34.955Z,8.57
2019-04-04T20:43:03.360Z,8.33
2019-04-04T20:45:31.769Z,8.87
2019-04-04T20:48:00.159Z,8.80
2019-04-04T20:50:28.653Z,8.60
2019-04-04T20:52:57.129Z,9.47
2019-04-04T20:55:25.611Z,9.37
2019-04-04T20:57:54.008Z,9.63
2019-04-04T21:00:22.437Z,10.13
2019-04-04T21:02:50.819Z,9.97
2019-04-04T21:05:19.228Z,9.60
2019-04-04T21:07:47.675Z,10.43
2019-04-04T21:10:16.177Z,10.63
2019-04-04T21:12:44.659Z,11.53
2019-04-04T21:15:13.713Z,11.60
2019-04-04T21:17:42.204Z,12.07
2019-04-04T21:20:10.745Z,11.63
2019-04-04T21:22:39.154Z,11.70
2019-04-04T21:25:07.560Z,11.57
2019-04-04T21:27:35.975Z,11.50
2019-04-04T21:30:05.916Z,12.57
2019-04-04T21:32:34.321Z,11.30
2019-04-04T21:35:02.904Z,12.23
2019-04-04T21:37:31.311Z,11.30
2019-04-04T21:39:59.732Z,12.47
2019-04-04T21:42:28.140Z,12.20
2019-04-04T21:44:56.544Z,11.73
2019-04-04T21:47:24.956Z,12.90
2019-04-04T21:49:53.360Z,13.07
2019-04-04T21:52:21.776Z,13.00
2019-04-04T21:54:50.181Z,13.07
2019-04-04T21:57:18.629Z,13.07
2019-04-04T21:59:47.055Z,12.90
2019-04-04T22:02:15.623Z,12.20
2019-04-04T22:04:44.047Z,13.20
2019-04-04T22:07:13.997Z,13.10
2019-04-04T22:09:42.423Z,12.53
2019-04-04T22:12:10.897Z,12.77
2019-04-04T22:14:39.308Z,11.73
2019-04-04T22:17:07.793Z,13.07
2019-04-04T22:19:36.192Z,12.70
2019-04-04T22:22:04.675Z,12.67
2019-04-04T22:24:33.192Z,11.77
2019-04-04T22:27:01.645Z,12.47
2019-04-04T22:29:49.972Z,12.33
2019-04-04T22:35:01.267Z,13.33
2019-04-04T22:37:29.741Z,13.17
2019-04-04T22:39:58.164Z,13.73
2019-04-04T22:42:26.568Z,13.37
2019-04-04T22:44:54.984Z,12.00
2019-04-04T22:47:23.419Z,13.80
2019-04-04T22:49:51.855Z,13.10
2019-04-04T22:52:20.289Z,13.73
2019-04-04T22:54:48.697Z,13.00
2019-04-04T22:57:17.096Z,13.00
2019-04-04T22:59:45.535Z,11.97
2019-04-04T23:02:14.019Z,12.83
2019-04-04T23:04:42.417Z,11.47
2019-04-04T23:07:10.867Z,11.93
2019-04-04T23:09:39.295Z,12.27
2019-04-04T23:12:07.715Z,11.43
2019-04-04T23:14:47.314Z,10.53
2019-04-04T23:17:06.323Z,11.30
2019-04-04T23:19:34.731Z,11.43
2019-04-04T23:22:03.133Z,10.90
2019-04-04T23:24:31.539Z,11.50
2019-04-04T23:26:59.948Z,10.70
2019-04-04T23:29:28.373Z,10.90
2019-04-04T23:31:56.803Z,10.07
2019-04-04T23:34:25.216Z,11.00
2019-04-04T23:36:53.656Z,11.07
2019-04-04T23:39:22.071Z,11.87
2019-04-04T23:41:50.480Z,11.47
2019-04-04T23:44:18.896Z,12.47
2019-04-04T23:46:47.298Z,10.43
2019-04-04T23:49:15.715Z,10.93
2019-04-04T23:51:44.132Z,11.63
2019-04-04T23:54:12.531Z,10.80
2019-04-04T23:56:40.987Z,11.43
2019-04-04T23:59:09.390Z,11.60
